createdAt,value
2018-06-02T00:01:14.965Z,47.53
2018-06-02T00:03:43.239Z,45.53
2018-06-02T00:08:45.757Z,45.17
2018-06-02T00:11:14.131Z,45.77
2018-06-02T00:13:42.386Z,43.53
2018-06-02T00:16:10.743Z,41.67
2018-06-02T00:18:39.035Z,42.23
2018-06-02T00:21:07.349Z,41.23
2018-06-02T00:23:35.889Z,41.00
2018-06-02T00:26:04.176Z,42.93
2018-06-02T00:28:32.477Z,42.63
2018-06-02T00:31:04.664Z,40.20
2018-06-02T00:33:33.748Z,39.93
2018-06-02T00:36:02.032Z,39.20
2018-06-02T00:38:30.365Z,39.57
2018-06-02T00:40:58.680Z,40.53
2018-06-02T00:43:27.793Z,44.63
2018-06-02T00:45:56.837Z,43.27
2018-06-02T00:48:25.160Z,46.57
2018-06-02T00:50:54.258Z,54.43
2018-06-02T00:53:23.382Z,63.57
2018-06-02T00:55:51.692Z,65.50
2018-06-02T00:58:20.031Z,74.47
2018-06-02T01:00:49.176Z,77.53
2018-06-02T01:03:17.488Z,77.37
2018-06-02T01:05:46.593Z,78.10
2018-06-02T01:08:15.715Z,70.83
2018-06-02T01:10:44.035Z,76.10
2018-06-02T01:13:12.349Z,72.93
2018-06-02T01:15:41.401Z,76.23
2018-06-02T01:18:09.739Z,75.07
2018-06-02T01:20:38.032Z,76.10
2018-06-02T01:23:06.342Z,72.27
2018-06-02T01:25:34.633Z,73.20
2018-06-02T01:28:02.957Z,77.53
2018-06-02T01:30:31.288Z,76.23
2018-06-02T01:32:59.583Z,74.03
2018-06-02T01:35:28.646Z,74.10
2018-06-02T01:37:56.921Z,73.33
2018-06-02T01:42:59.479Z,74.43
2018-06-02T01:45:27.790Z,74.27
2018-06-02T01:47:56.106Z,75.03
2018-06-02T01:50:25.182Z,72.97
2018-06-02T01:52:53.461Z,70.80
2018-06-02T01:55:21.772Z,70.73
2018-06-02T01:57:50.072Z,71.50
2018-06-02T02:00:18.385Z,64.47
2018-06-02T02:02:46.689Z,66.77
2018-06-02T02:05:15.033Z,64.80
2018-06-02T02:07:43.370Z,64.53
2018-06-02T02:10:11.683Z,67.57
2018-06-02T02:12:39.989Z,65.47
2018-06-02T02:15:08.305Z,60.03
2018-06-02T02:17:36.617Z,66.43
2018-06-02T02:20:04.932Z,63.73
2018-06-02T02:22:33.989Z,63.37
2018-06-02T02:25:02.262Z,59.83
2018-06-02T02:27:30.593Z,61.83
2018-06-02T02:29:59.635Z,56.43
2018-06-02T02:32:28.029Z,59.03
2018-06-02T02:34:56.292Z,58.40
2018-06-02T02:37:24.768Z,56.07
2018-06-02T02:39:53.059Z,58.00
2018-06-02T02:42:21.388Z,55.77
2018-06-02T02:44:49.681Z,56.57
2018-06-02T02:47:18.018Z,56.70
2018-06-02T02:49:47.052Z,55.80
2018-06-02T02:54:49.402Z,56.57
2018-06-02T02:57:18.493Z,54.97
2018-06-02T02:59:46.779Z,51.07
2018-06-02T03:02:19.108Z,52.53
2018-06-02T03:04:47.412Z,52.33
2018-06-02T03:07:15.724Z,51.60
2018-06-02T03:09:44.050Z,54.27
2018-06-02T03:12:12.371Z,51.20
2018-06-02T03:14:41.431Z,50.73
2018-06-02T03:17:09.736Z,53.97
2018-06-02T03:19:38.793Z,56.17
2018-06-02T03:22:07.148Z,63.53
2018-06-02T03:24:35.469Z,63.40
2018-06-02T03:27:03.785Z,66.67
2018-06-02T03:29:32.113Z,65.67
2018-06-02T03:32:01.324Z,70.27
2018-06-02T03:34:29.638Z,70.50
2018-06-02T03:36:57.958Z,65.23
2018-06-02T03:39:26.278Z,66.77
2018-06-02T03:41:55.329Z,66.27
2018-06-02T03:44:23.648Z,63.97
2018-06-02T03:46:52.727Z,63.97
2018-06-02T03:49:21.074Z,63.00
2018-06-02T03:51:49.389Z,62.07
2018-06-02T03:54:17.740Z,63.43
2018-06-02T03:56:46.025Z,60.03
2018-06-02T03:59:14.322Z,59.47
2018-06-02T04:01:42.669Z,56.90
2018-06-02T04:04:10.966Z,55.47
2018-06-02T04:06:39.276Z,57.03
2018-06-02T04:09:08.331Z,57.80
2018-06-02T04:11:36.624Z,56.40
2018-06-02T04:14:04.973Z,58.37
2018-06-02T04:16:33.251Z,57.73
2018-06-02T04:19:01.575Z,58.27
2018-06-02T04:21:29.889Z,55.90
2018-06-02T04:23:59.016Z,58.57
2018-06-02T04:26:27.336Z,58.33
2018-06-02T04:28:56.398Z,58.27
2018-06-02T04:31:24.695Z,60.30
2018-06-02T04:33:53.010Z,60.50
2018-06-02T04:38:55.116Z,62.83
2018-06-02T04:41:23.447Z,63.03
2018-06-02T04:43:51.745Z,62.47
2018-06-02T04:46:20.062Z,63.03
2018-06-02T04:48:48.420Z,63.50
2018-06-02T04:51:16.696Z,65.00
2018-06-02T04:53:45.012Z,65.10
2018-06-02T04:56:13.341Z,64.30
2018-06-02T04:58:41.768Z,66.80
2018-06-02T05:01:13.744Z,65.93
2018-06-02T05:03:42.081Z,64.43
2018-06-02T05:06:10.417Z,64.70
2018-06-02T05:08:39.497Z,65.37
2018-06-02T05:11:07.944Z,66.33
2018-06-02T05:13:36.238Z,61.67
2018-06-02T05:16:04.538Z,64.83
2018-06-02T05:18:33.585Z,64.90
2018-06-02T05:21:01.921Z,63.07
2018-06-02T05:23:31.011Z,63.50
2018-06-02T05:26:00.080Z,58.73
2018-06-02T05:28:28.390Z,59.50
2018-06-02T05:30:56.707Z,60.57
2018-06-02T05:33:24.996Z,56.07
2018-06-02T05:35:53.295Z,55.70
2018-06-02T05:38:21.626Z,53.50
2018-06-02T05:40:49.914Z,55.70
2018-06-02T05:43:18.242Z,57.33
2018-06-02T05:45:47.288Z,54.53
2018-06-02T05:48:15.590Z,54.43
2018-06-02T05:50:43.901Z,51.00
2018-06-02T05:53:13.056Z,53.13
2018-06-02T05:55:41.355Z,50.10
2018-06-02T05:58:09.677Z,47.13
2018-06-02T06:00:37.994Z,49.83
2018-06-02T06:03:06.304Z,46.27
2018-06-02T06:05:35.342Z,47.00
2018-06-02T06:08:03.645Z,44.83
2018-06-02T06:10:31.978Z,41.40
2018-06-02T06:13:00.431Z,37.97
2018-06-02T06:15:29.528Z,37.53
2018-06-02T06:17:58.636Z,38.17
2018-06-02T06:20:26.908Z,37.17
2018-06-02T06:22:55.221Z,36.20
2018-06-02T06:25:23.541Z,36.43
2018-06-02T06:27:51.834Z,32.43
2018-06-02T06:30:20.924Z,34.57
2018-06-02T06:32:49.983Z,30.70
2018-06-02T06:35:18.341Z,31.67
2018-06-02T06:37:50.102Z,33.03
2018-06-02T06:40:18.407Z,31.10
2018-06-02T06:42:46.701Z,31.47
2018-06-02T06:45:15.970Z,30.33
2018-06-02T06:47:44.268Z,30.80
2018-06-02T06:50:12.569Z,28.57
2018-06-02T06:52:40.864Z,28.60
2018-06-02T06:55:09.931Z,27.67
2018-06-02T06:57:38.274Z,26.20
2018-06-02T07:00:07.292Z,26.30
2018-06-02T07:02:35.605Z,26.03
2018-06-02T07:05:04.702Z,24.33
2018-06-02T07:07:33.731Z,24.10
2018-06-02T07:10:02.123Z,23.30
2018-06-02T07:12:32.948Z,25.03
2018-06-02T07:15:03.556Z,25.53
2018-06-02T07:17:32.855Z,24.67
2018-06-02T07:20:01.297Z,24.03
2018-06-02T07:22:29.626Z,25.27
2018-06-02T07:24:57.920Z,23.13
2018-06-02T07:27:26.252Z,23.50
2018-06-02T07:29:55.382Z,23.77
2018-06-02T07:32:23.696Z,23.37
2018-06-02T07:34:52.026Z,23.33
2018-06-02T07:37:23.480Z,24.70
2018-06-02T07:39:54.866Z,23.97
2018-06-02T07:42:23.244Z,24.40
2018-06-02T07:44:51.532Z,25.67
2018-06-02T07:47:19.856Z,23.73
2018-06-02T07:49:48.939Z,25.77
2018-06-02T07:52:17.232Z,25.97
2018-06-02T07:54:45.543Z,24.60
2018-06-02T07:57:13.880Z,27.27
2018-06-02T07:59:42.952Z,26.90
2018-06-02T08:02:11.247Z,27.17
2018-06-02T08:04:40.337Z,29.40
2018-06-02T08:07:09.406Z,29.80
2018-06-02T08:09:37.684Z,28.00
2018-06-02T08:12:05.998Z,29.13
2018-06-02T08:14:35.044Z,29.93
2018-06-02T08:17:03.354Z,29.47
2018-06-02T08:19:32.376Z,31.70
2018-06-02T08:22:00.713Z,30.47
2018-06-02T08:24:29.003Z,30.43
2018-06-02T08:26:58.109Z,30.77
2018-06-02T08:29:27.165Z,28.10
2018-06-02T08:31:55.469Z,28.20
2018-06-02T08:34:23.770Z,28.73
2018-06-02T08:36:55.871Z,29.23
2018-06-02T08:39:24.163Z,30.07
2018-06-02T08:41:52.523Z,30.93
2018-06-02T08:44:20.804Z,29.17
2018-06-02T08:46:49.144Z,30.20
2018-06-02T08:49:18.180Z,31.03
2018-06-02T08:51:46.476Z,30.80
2018-06-02T08:54:14.788Z,30.00
2018-06-02T08:56:43.941Z,28.23
2018-06-02T08:59:12.247Z,30.43
2018-06-02T09:01:40.519Z,31.07
2018-06-02T09:04:09.610Z,33.17
2018-06-02T09:06:38.017Z,33.07
2018-06-02T09:09:06.310Z,32.87
2018-06-02T09:11:34.628Z,32.20
2018-06-02T09:14:02.948Z,29.23
2018-06-02T09:16:32.042Z,29.87
2018-06-02T09:19:01.118Z,29.63
2018-06-02T09:21:29.405Z,27.33
2018-06-02T09:23:57.747Z,27.63
2018-06-02T09:26:26.058Z,26.00
2018-06-02T09:28:54.425Z,25.97
2018-06-02T09:31:22.701Z,24.63
2018-06-02T09:33:50.996Z,24.50
2018-06-02T09:36:20.056Z,26.10
2018-06-02T09:38:48.358Z,26.73
2018-06-02T09:41:16.659Z,23.90
2018-06-02T09:43:45.732Z,24.33
2018-06-02T09:46:14.043Z,24.77
2018-06-02T09:48:42.357Z,25.93
2018-06-02T09:51:10.646Z,27.27
2018-06-02T09:53:38.950Z,26.67
2018-06-02T09:56:07.244Z,28.20
2018-06-02T09:58:36.302Z,24.27
2018-06-02T10:01:04.583Z,27.83
2018-06-02T10:03:32.957Z,27.70
2018-06-02T10:06:01.233Z,27.67
2018-06-02T10:08:29.549Z,26.37
2018-06-02T10:10:57.832Z,26.60
2018-06-02T10:13:26.187Z,25.60
2018-06-02T10:15:54.644Z,26.43
2018-06-02T10:18:22.994Z,26.77
2018-06-02T10:20:51.342Z,25.97
2018-06-02T10:23:19.649Z,25.00
2018-06-02T10:25:48.050Z,25.07
2018-06-02T10:28:16.408Z,22.00
2018-06-02T10:30:44.701Z,20.43
2018-06-02T10:33:13.041Z,18.60
2018-06-02T10:35:46.456Z,18.00
2018-06-02T10:38:14.839Z,16.87
2018-06-02T10:40:43.161Z,17.30
2018-06-02T10:43:11.460Z,16.47
2018-06-02T10:45:40.551Z,17.70
2018-06-02T10:48:08.898Z,17.27
2018-06-02T10:50:37.186Z,17.90
2018-06-02T10:53:05.489Z,20.90
2018-06-02T10:55:34.767Z,19.93
2018-06-02T10:58:03.081Z,20.33
2018-06-02T11:00:32.152Z,20.57
2018-06-02T11:03:00.469Z,19.83
2018-06-02T11:05:29.740Z,20.70
2018-06-02T11:07:58.846Z,20.30
2018-06-02T11:10:27.921Z,21.03
2018-06-02T11:12:56.227Z,22.27
2018-06-02T11:15:25.303Z,21.47
2018-06-02T11:17:54.371Z,21.80
2018-06-02T11:20:22.682Z,21.60
2018-06-02T11:22:51.895Z,22.47
2018-06-02T11:25:21.007Z,22.33
2018-06-02T11:27:49.320Z,24.67
2018-06-02T11:30:17.752Z,23.67
2018-06-02T11:32:46.128Z,24.73
2018-06-02T11:35:15.192Z,23.73
2018-06-02T11:37:43.530Z,24.07
2018-06-02T11:40:11.896Z,25.53
2018-06-02T11:42:40.215Z,26.53
2018-06-02T11:45:08.502Z,25.67
2018-06-02T11:47:36.843Z,26.87
2018-06-02T11:50:05.196Z,26.37
2018-06-02T11:52:34.242Z,28.40
2018-06-02T11:55:02.525Z,27.60
2018-06-02T11:57:30.840Z,26.87
2018-06-02T11:59:59.911Z,26.70
2018-06-02T12:02:28.299Z,27.60
2018-06-02T12:04:57.365Z,26.90
2018-06-02T12:07:25.744Z,27.37
2018-06-02T12:09:54.039Z,27.93
2018-06-02T12:12:22.354Z,27.97
2018-06-02T12:14:50.673Z,27.50
2018-06-02T12:17:18.988Z,28.53
2018-06-02T12:19:47.273Z,28.73
2018-06-02T12:22:16.331Z,27.97
2018-06-02T12:24:44.652Z,28.40
2018-06-02T12:27:12.986Z,27.97
2018-06-02T12:29:41.270Z,27.37
2018-06-02T12:32:09.693Z,26.17
2018-06-02T12:34:37.992Z,26.37
2018-06-02T12:37:06.310Z,28.40
2018-06-02T12:39:34.622Z,27.67
2018-06-02T12:42:02.949Z,29.27
2018-06-02T12:44:31.266Z,27.50
2018-06-02T12:46:59.573Z,26.10
2018-06-02T12:49:27.935Z,24.93
2018-06-02T12:51:56.204Z,24.60
2018-06-02T12:54:24.580Z,24.60
2018-06-02T12:56:53.673Z,24.43
2018-06-02T12:59:22.810Z,23.53
2018-06-02T13:01:51.206Z,22.63
2018-06-02T13:04:19.538Z,23.77
2018-06-02T13:06:48.577Z,24.50
2018-06-02T13:09:16.945Z,24.40
2018-06-02T13:11:45.237Z,24.90
2018-06-02T13:14:13.674Z,25.43
2018-06-02T13:16:42.709Z,27.37
2018-06-02T13:19:11.791Z,27.67
2018-06-02T13:21:40.082Z,29.37
2018-06-02T13:24:08.380Z,26.17
2018-06-02T13:26:36.691Z,27.93
2018-06-02T13:29:05.826Z,28.10
2018-06-02T13:31:34.137Z,27.20
2018-06-02T13:34:02.458Z,27.10
2018-06-02T13:36:30.762Z,26.57
2018-06-02T13:38:59.832Z,25.90
2018-06-02T13:41:28.128Z,25.67
2018-06-02T13:43:56.436Z,22.50
2018-06-02T13:46:24.755Z,24.03
2018-06-02T13:48:53.827Z,24.70
2018-06-02T13:51:22.106Z,23.00
2018-06-02T13:53:51.163Z,23.87
2018-06-02T13:56:19.481Z,24.93
2018-06-02T13:58:47.777Z,25.33
2018-06-02T14:01:16.914Z,25.20
2018-06-02T14:03:45.158Z,26.90
2018-06-02T14:06:13.510Z,25.27
2018-06-02T14:08:41.812Z,27.57
2018-06-02T14:11:11.100Z,28.70
2018-06-02T14:13:40.178Z,29.47
2018-06-02T14:16:08.492Z,31.13
2018-06-02T14:18:36.892Z,30.00
2018-06-02T14:21:05.146Z,30.53
2018-06-02T14:23:33.447Z,31.97
2018-06-02T14:26:01.801Z,31.73
2018-06-02T14:28:30.099Z,33.33
2018-06-02T14:30:58.433Z,31.00
2018-06-02T14:33:26.747Z,32.00
2018-06-02T14:35:55.145Z,32.67
2018-06-02T14:38:23.524Z,33.93
2018-06-02T14:40:51.795Z,33.23
2018-06-02T14:43:20.200Z,32.17
2018-06-02T14:45:48.496Z,32.47
2018-06-02T14:48:16.802Z,32.53
2018-06-02T14:50:45.142Z,33.17
2018-06-02T14:53:13.498Z,34.83
2018-06-02T14:55:41.790Z,33.63
2018-06-02T14:58:10.105Z,34.13
2018-06-02T15:00:39.226Z,33.03
2018-06-02T15:03:07.546Z,31.33
2018-06-02T15:05:35.836Z,30.90
2018-06-02T15:08:04.161Z,30.33
2018-06-02T15:10:32.464Z,29.63
2018-06-02T15:13:00.785Z,31.60
2018-06-02T15:15:29.843Z,28.77
2018-06-02T15:17:58.176Z,30.60
2018-06-02T15:20:26.481Z,30.00
2018-06-02T15:22:55.069Z,27.80
2018-06-02T15:25:23.391Z,28.93
2018-06-02T15:27:52.535Z,29.23
2018-06-02T15:30:20.849Z,28.80
2018-06-02T15:32:49.208Z,29.17
2018-06-02T15:35:17.484Z,30.03
2018-06-02T15:37:45.781Z,30.40
2018-06-02T15:40:14.139Z,29.03
2018-06-02T15:42:42.433Z,28.57
2018-06-02T15:45:10.760Z,28.73
2018-06-02T15:47:39.061Z,29.53
2018-06-02T15:50:07.373Z,29.33
2018-06-02T15:52:35.712Z,27.27
2018-06-02T15:55:04.021Z,29.40
2018-06-02T15:57:32.408Z,26.00
2018-06-02T16:00:00.727Z,27.43
2018-06-02T16:02:29.024Z,25.10
2018-06-02T16:04:57.400Z,25.63
2018-06-02T16:07:25.693Z,26.10
2018-06-02T16:09:53.985Z,25.80
2018-06-02T16:12:22.324Z,26.17
2018-06-02T16:17:25.288Z,24.93
2018-06-02T16:19:57.262Z,23.97
2018-06-02T16:22:26.375Z,23.33
2018-06-02T16:24:54.673Z,23.20
2018-06-02T16:27:22.976Z,23.40
2018-06-02T16:29:51.291Z,24.57
2018-06-02T16:32:20.352Z,25.37
2018-06-02T16:34:48.678Z,26.73
2018-06-02T16:37:17.060Z,25.53
2018-06-02T16:39:45.383Z,24.23
2018-06-02T16:42:13.702Z,23.73
2018-06-02T16:44:42.827Z,22.53
2018-06-02T16:47:11.133Z,22.33
2018-06-02T16:49:39.549Z,22.03
2018-06-02T16:52:08.617Z,19.67
2018-06-02T16:54:36.917Z,20.07
2018-06-02T16:57:05.217Z,18.43
2018-06-02T16:59:33.526Z,17.17
2018-06-02T17:02:01.838Z,16.77
2018-06-02T17:04:30.169Z,18.73
2018-06-02T17:06:58.487Z,17.23
2018-06-02T17:09:26.799Z,19.03
2018-06-02T17:11:55.865Z,17.73
2018-06-02T17:14:24.176Z,18.50
2018-06-02T17:16:53.251Z,18.37
2018-06-02T17:19:21.598Z,24.67
2018-06-02T17:21:49.924Z,18.87
2018-06-02T17:24:19.020Z,18.93
2018-06-02T17:26:48.175Z,19.90
2018-06-02T17:29:16.543Z,18.23
2018-06-02T17:31:44.893Z,23.33
2018-06-02T17:34:13.211Z,21.37
2018-06-02T17:36:41.533Z,16.47
2018-06-02T17:39:09.954Z,18.20
2018-06-02T17:41:38.253Z,16.00
2018-06-02T17:44:06.578Z,17.03
2018-06-02T17:46:34.903Z,15.57
2018-06-02T17:49:03.198Z,15.40
2018-06-02T17:51:31.565Z,15.83
2018-06-02T17:53:59.858Z,16.43
2018-06-02T17:56:28.160Z,16.00
2018-06-02T17:58:56.474Z,16.40
2018-06-02T18:01:24.770Z,16.30
2018-06-02T18:03:53.097Z,16.90
2018-06-02T18:06:21.557Z,17.77
2018-06-02T18:08:49.852Z,18.40
2018-06-02T18:11:19.356Z,17.23
2018-06-02T18:13:48.459Z,17.57
2018-06-02T18:16:18.917Z,18.27
2018-06-02T18:18:51.287Z,18.63
2018-06-02T18:21:19.550Z,19.33
2018-06-02T18:26:22.742Z,19.10
2018-06-02T18:28:51.807Z,17.93
2018-06-02T18:31:20.137Z,18.30
2018-06-02T18:33:48.448Z,17.83
2018-06-02T18:36:16.757Z,17.37
2018-06-02T18:38:45.812Z,18.20
2018-06-02T18:41:14.110Z,18.93
2018-06-02T18:43:42.428Z,18.40
2018-06-02T18:46:11.524Z,20.33
2018-06-02T18:48:40.603Z,22.70
2018-06-02T18:51:09.671Z,21.57
2018-06-02T18:53:38.031Z,21.43
2018-06-02T18:56:07.057Z,22.07
2018-06-02T18:58:35.371Z,22.57
2018-06-02T19:01:03.710Z,23.93
2018-06-02T19:03:32.008Z,24.60
2018-06-02T19:06:01.091Z,22.40
2018-06-02T19:08:29.449Z,24.87
2018-06-02T19:10:57.771Z,24.70
2018-06-02T19:13:26.834Z,22.93
2018-06-02T19:15:55.141Z,23.73
2018-06-02T19:18:24.264Z,23.10
2018-06-02T19:20:52.674Z,23.23
2018-06-02T19:23:20.970Z,24.80
2018-06-02T19:25:52.857Z,25.50
2018-06-02T19:28:21.947Z,25.33
2018-06-02T19:30:51.063Z,25.00
2018-06-02T19:33:19.352Z,25.20
2018-06-02T19:35:47.747Z,25.87
2018-06-02T19:38:16.076Z,25.77
2018-06-02T19:40:45.296Z,27.83
2018-06-02T19:43:13.580Z,26.33
2018-06-02T19:45:41.913Z,29.13
2018-06-02T19:48:10.364Z,28.90
2018-06-02T19:50:38.649Z,25.90
2018-06-02T19:53:06.955Z,27.50
2018-06-02T19:55:35.310Z,28.17
2018-06-02T20:00:37.110Z,25.63
2018-06-02T20:03:05.456Z,26.87
2018-06-02T20:05:33.852Z,26.33
2018-06-02T20:08:02.190Z,28.67
2018-06-02T20:10:30.551Z,28.47
2018-06-02T20:12:58.927Z,28.10
2018-06-02T20:15:28.041Z,28.63
2018-06-02T20:17:56.392Z,28.40
2018-06-02T20:20:25.654Z,28.60
2018-06-02T20:22:54.006Z,27.77
2018-06-02T20:25:22.329Z,29.13
2018-06-02T20:27:50.832Z,29.50
2018-06-02T20:30:19.981Z,28.47
2018-06-02T20:32:49.300Z,28.23
2018-06-02T20:35:17.691Z,27.80
2018-06-02T20:37:46.128Z,26.67
2018-06-02T20:40:14.425Z,25.73
2018-06-02T20:42:42.741Z,25.93
2018-06-02T20:45:11.061Z,26.33
2018-06-02T20:47:40.210Z,26.80
2018-06-02T20:50:08.520Z,26.23
2018-06-02T20:52:36.841Z,27.87
2018-06-02T20:55:05.152Z,26.53
2018-06-02T20:57:34.269Z,26.37
2018-06-02T21:00:02.582Z,27.37
2018-06-02T21:02:30.929Z,26.70
2018-06-02T21:04:59.228Z,26.90
2018-06-02T21:07:27.584Z,27.37
2018-06-02T21:12:30.586Z,28.13
2018-06-02T21:14:59.017Z,27.50
2018-06-02T21:17:27.307Z,28.33
2018-06-02T21:19:55.677Z,28.30
2018-06-02T21:22:24.060Z,28.60
2018-06-02T21:24:53.377Z,28.10
2018-06-02T21:27:21.728Z,30.03
2018-06-02T21:29:50.021Z,29.20
2018-06-02T21:32:18.327Z,31.47
2018-06-02T21:34:47.428Z,28.17
2018-06-02T21:37:15.723Z,27.50
2018-06-02T21:39:44.015Z,29.00
2018-06-02T21:42:12.360Z,27.23
2018-06-02T21:44:41.478Z,27.33
2018-06-02T21:47:10.497Z,27.87
2018-06-02T21:49:39.637Z,26.67
2018-06-02T21:52:08.722Z,30.70
2018-06-02T21:54:37.041Z,31.40
2018-06-02T21:57:05.321Z,29.17
2018-06-02T21:59:33.607Z,28.57
2018-06-02T22:02:01.925Z,27.50
2018-06-02T22:04:30.266Z,28.27
2018-06-02T22:06:58.602Z,27.23
2018-06-02T22:09:31.535Z,26.93
2018-06-02T22:11:59.838Z,28.00
2018-06-02T22:14:28.179Z,28.20
2018-06-02T22:16:56.566Z,27.10
2018-06-02T22:19:24.873Z,29.33
2018-06-02T22:21:53.212Z,29.97
2018-06-02T22:24:21.584Z,29.17
2018-06-02T22:26:49.889Z,29.17
2018-06-02T22:29:18.180Z,30.20
2018-06-02T22:31:46.502Z,30.23
2018-06-02T22:34:15.598Z,30.97
2018-06-02T22:36:47.725Z,33.03
2018-06-02T22:39:16.005Z,30.80
2018-06-02T22:41:45.334Z,29.60
2018-06-02T22:44:14.380Z,31.77
2018-06-02T22:46:45.848Z,28.83
2018-06-02T22:49:14.176Z,30.13
2018-06-02T22:51:57.414Z,31.67
2018-06-02T22:54:26.504Z,32.27
2018-06-02T22:56:54.804Z,32.30
2018-06-02T22:59:23.132Z,32.60
2018-06-02T23:01:52.260Z,32.90
2018-06-02T23:04:20.568Z,32.90
2018-06-02T23:06:48.888Z,31.83
2018-06-02T23:09:17.930Z,33.43
2018-06-02T23:11:46.324Z,33.43
2018-06-02T23:14:14.575Z,34.00
2018-06-02T23:16:42.878Z,34.20
2018-06-02T23:19:11.201Z,34.40
2018-06-02T23:21:40.251Z,33.90
2018-06-02T23:24:08.582Z,32.80
2018-06-02T23:26:37.290Z,32.33
2018-06-02T23:29:05.628Z,32.43
2018-06-02T23:31:34.949Z,34.13
2018-06-02T23:34:04.104Z,32.03
2018-06-02T23:36:32.399Z,33.30
2018-06-02T23:39:01.487Z,31.90
2018-06-02T23:41:29.810Z,32.30
2018-06-02T23:43:58.095Z,33.43
2018-06-02T23:46:26.367Z,33.60
2018-06-02T23:48:55.566Z,36.50
2018-06-02T23:51:23.897Z,32.80
2018-06-02T23:53:52.994Z,33.03
2018-06-02T23:56:23.391Z,33.10
2018-06-02T23:58:51.764Z,33.93
